^^
Station Historical Data
 
Daily Summary for September 25, 2018 Units:  English    Metric   Both
« Previous Day
Next Day »
Daily Weekly Monthly Yearly Custom
  Current: High: Low: Average:
Temperature: 66.7 °F TemperatureF °F 65.5 °F 65.3 °F
Dew Point: 59 °F DewpointF °F 58.1 °F 59.3 °F
Humidity: 76% Humidity% 76% 80%
Wind Speed: 0mph WindSpeedMPHmph 0mph 0.1mph
Wind Gust: 0mph WindSpeedGustMPHmph - -
WindCalm - - SSE
Pressure: 30.56 in PressureIn in 30.54 in -
Precipitation: 0.27 in      
Historical Graphs
 
 
Tabular Data for September 25, 2018
Time Temperature Dew Point Pressure Wind Wind Speed Wind Gust Humidity Rainfall Rate (Hourly)
TemperatureF °F DewpointF °F PressureIn in Calm     Humidity% HourlyPrecipIn in
00:01 68.2 °F 64.4 °F 30.58 in Calm   1 mph 88% 0 in
00:11 68.2 °F 64.4 °F 30.58 in Calm   3 mph 88% 0 in
00:16 68.2 °F 64.4 °F 30.58 in Calm   1 mph 88% 0 in
00:21 68.2 °F 64.4 °F 30.58 in ENE 2 mph 2 mph 88% 0 in
00:26 68.2 °F 64.4 °F 30.58 in SE 0.9 mph 1 mph 88% 0 in
00:31 68.4 °F 64.6 °F 30.58 in Calm   3 mph 88% 0 in
00:36 68.4 °F 64.6 °F 30.58 in Calm   1 mph 88% 0 in
00:46 68.2 °F 64.4 °F 30.58 in Calm     88% 0 in
00:51 68.2 °F 64.4 °F 30.58 in Calm   2 mph 88% 0 in
00:56 68 °F 64.6 °F 30.58 in WNW 0.9 mph 1 mph 89% 0 in
01:11 67.6 °F 64.6 °F 30.57 in Calm   1 mph 90% 0 in
01:16 67.6 °F 64.2 °F 30.57 in Calm   2 mph 89% 0 in
01:21 67.6 °F 64.6 °F 30.57 in Calm   1 mph 90% 0.01 in
01:26 67.5 °F 64.4 °F 30.57 in Calm     90% 0.05 in
01:31 66.9 °F 64.2 °F 30.57 in Calm   2 mph 91% 0.08 in
01:36 66.4 °F 63 °F 30.57 in Calm     89% 0.09 in
01:41 66 °F 62.4 °F 30.57 in Calm     88% 0.09 in
01:46 66 °F 61.7 °F 30.57 in Calm   1 mph 86% 0.09 in
01:51 65.8 °F 61.2 °F 30.57 in Calm     85% 0.14 in
02:01 65.7 °F 60.4 °F 30.57 in Calm     83% 0.19 in
02:07 65.7 °F 60.1 °F 30.57 in Calm     82% 0.2 in
02:12 65.7 °F 60.1 °F 30.57 in Calm     82% 0.21 in
02:22 65.7 °F 59.4 °F 30.56 in Calm     80% 0.22 in
02:32 65.5 °F 59.2 °F 30.57 in Calm     80% 0.16 in
02:37 65.7 °F 59.4 °F 30.57 in Calm     80% 0.16 in
03:07 65.5 °F 58.8 °F 30.56 in ESE 0.9 mph 1 mph 79% 0.05 in
03:12 65.5 °F 58.8 °F 30.56 in Calm     79% 0.04 in
03:17 65.5 °F 58.8 °F 30.55 in Calm   1 mph 79% 0.03 in
03:22 65.7 °F 59 °F 30.56 in Calm     79% 0.02 in
03:27 65.7 °F 59 °F 30.55 in Calm     79% 0.01 in
03:32 65.7 °F 59 °F 30.55 in Calm     79% 0.01 in
03:48 65.7 °F 58.6 °F 30.55 in Calm     78% 0 in
03:53 65.7 °F 58.6 °F 30.55 in Calm     78% 0 in
03:58 65.7 °F 58.6 °F 30.55 in Calm     78% 0 in
04:03 65.5 °F 58.5 °F 30.55 in Calm     78% 0 in
04:08 65.5 °F 58.5 °F 30.55 in Calm     78% 0 in
04:13 65.5 °F 58.5 °F 30.55 in Calm     78% 0 in
04:18 65.5 °F 58.5 °F 30.54 in Calm     78% 0 in
04:23 65.5 °F 58.5 °F 30.54 in Calm     78% 0 in
04:28 65.5 °F 58.5 °F 30.55 in Calm   1 mph 78% 0 in
04:33 65.5 °F 58.5 °F 30.54 in Calm     78% 0 in
04:38 65.5 °F 58.5 °F 30.54 in Calm     78% 0 in
04:43 65.5 °F 58.5 °F 30.54 in Calm   1 mph 78% 0 in
05:03 65.7 °F 58.6 °F 30.54 in Calm     78% 0 in
05:18 65.7 °F 58.6 °F 30.54 in Calm     78% 0 in
05:23 65.7 °F 58.6 °F 30.54 in Calm     78% 0 in
05:28 65.7 °F 58.6 °F 30.54 in Calm     78% 0 in
05:33 65.7 °F 58.6 °F 30.54 in Calm     78% 0 in
05:38 65.7 °F 58.6 °F 30.54 in Calm     78% 0 in
05:43 65.7 °F 58.6 °F 30.54 in Calm     78% 0 in
06:19 65.5 °F 58.1 °F 30.54 in Calm     77% 0 in
06:24 65.5 °F 58.1 °F 30.54 in Calm     77% 0 in
06:29 65.5 °F 58.1 °F 30.54 in Calm     77% 0 in
06:39 65.5 °F 58.1 °F 30.54 in Calm     77% 0 in
07:14 65.7 °F 58.3 °F 30.55 in Calm     77% 0 in
07:19 65.7 °F 58.3 °F 30.55 in Calm     77% 0 in
07:29 65.7 °F 58.3 °F 30.56 in Calm     77% 0.01 in
07:34 65.8 °F 58.5 °F 30.56 in Calm     77% 0.01 in
07:39 65.8 °F 58.5 °F 30.56 in Calm   1 mph 77% 0.01 in
07:49 65.8 °F 58.5 °F 30.56 in Calm     77% 0.01 in
07:54 65.8 °F 58.5 °F 30.56 in Calm     77% 0.01 in
07:59 65.8 °F 58.5 °F 30.56 in Calm     77% 0.01 in
08:04 66 °F 58.6 °F 30.56 in Calm   1 mph 77% 0.01 in
08:10 66 °F 58.3 °F 30.57 in Calm   1 mph 76% 0.01 in
08:15 66 °F 58.3 °F 30.57 in Calm     76% 0.01 in
08:20 66.2 °F 58.5 °F 30.56 in Calm     76% 0.02 in
08:30 66.4 °F 58.6 °F 30.57 in Calm     76% 0.01 in
08:35 66.4 °F 58.6 °F 30.57 in Calm     76% 0.01 in
08:45 66.6 °F 58.8 °F 30.56 in Calm   1 mph 76% 0.01 in
08:50 66.7 °F 59 °F 30.57 in Calm   1 mph 76% 0.01 in
08:55 66.7 °F 59 °F 30.56 in Calm     76% 0.01 in
WheeWeather.com
Compliments of Weather Underground - 1.5 mb